Time;durP1;ratioP1;P1;durP2;ratioP2;P2;SDS_P1;SDS_P2;PMS_P1;PMS_P2;Temp;Humidity;BMP_temperature;BMP_pressure;BME280_temperature;BME280_humidity;BME280_pressure;Samples;Min_cycle;Max_cycle;Signal;HPM_P1;HPM_P2
2022/07/05 00:01:39;;;;;;;;;;;;;;;;;;;;;
2022/07/05 00:05:38;;;;;;;4.47;1.98;;;15.80;99.90;;;;;;5020854;28;20506;-80
2022/07/05 00:13:16;;;;;;;6.45;2.17;;;15.70;99.90;;;;;;4877745;29;20428;-80
2022/07/05 00:20:26;;;;;;;3.50;1.85;;;15.60;99.90;;;;;;5022966;28;20432;-77
2022/07/05 00:23:56;;;;;;;2.70;2.00;;;15.50;99.90;;;;;;5023086;28;20796;-77
2022/07/05 00:27:53;;;;;;;;;;;;;;;;;;;;;
2022/07/05 00:40:17;;;;;;;;;;;;;;;;;;;;;
2022/07/05 00:45:56;;;;;;;3.33;2.10;;;15.30;99.90;;;;;;5024825;28;20508;-78
2022/07/05 00:48:41;;;;;;;3.38;2.30;;;15.30;99.90;;;;;;5028493;28;20414;-78
2022/07/05 00:51:28;;;;;;;4.18;2.15;;;15.20;99.90;;;;;;5036019;28;20500;-78
2022/07/05 00:54:13;;;;;;;3.63;2.47;;;15.20;99.90;;;;;;5029161;28;20935;-78
2022/07/05 00:56:58;;;;;;;3.30;2.30;;;15.20;99.90;;;;;;5025181;28;20434;-78
2022/07/05 00:59:42;;;;;;;4.18;2.20;;;15.20;99.90;;;;;;5024037;28;20506;-78
2022/07/05 01:02:26;;;;;;;3.28;2.08;;;15.20;99.90;;;;;;5023353;28;20929;-78
2022/07/05 01:05:11;;;;;;;3.95;2.38;;;15.20;99.90;;;;;;5026837;28;20498;-78
2022/07/05 01:07:59;;;;;;;3.55;2.28;;;15.20;99.90;;;;;;5029105;28;20496;-77
2022/07/05 01:10:44;;;;;;;5.50;2.25;;;15.10;99.90;;;;;;5021838;28;20426;-77
2022/07/05 01:13:30;;;;;;;4.70;2.28;;;15.10;99.90;;;;;;5026152;28;20426;-78
2022/07/05 01:16:15;;;;;;;6.20;2.40;;;15.10;99.90;;;;;;5022698;28;20912;-78
2022/07/05 01:18:59;;;;;;;5.67;2.43;;;15.00;99.90;;;;;;5026128;28;20415;-77
2022/07/05 01:21:46;;;;;;;4.25;2.42;;;15.00;99.90;;;;;;5029126;28;20456;-78
2022/07/05 01:24:31;;;;;;;5.80;2.20;;;15.00;99.90;;;;;;5023710;28;20546;-78
2022/07/05 01:27:17;;;;;;;4.32;2.15;;;15.00;99.90;;;;;;5028435;28;20414;-78
2022/07/05 01:30:01;;;;;;;5.90;2.40;;;15.00;99.90;;;;;;5025761;28;20422;-77
2022/07/05 01:32:46;;;;;;;2.92;2.20;;;14.90;99.90;;;;;;5024342;28;20460;-78
2022/07/05 01:35:32;;;;;;;3.90;2.20;;;14.90;99.90;;;;;;5024587;28;20454;-77
2022/07/05 01:38:16;;;;;;;3.17;2.13;;;14.80;99.90;;;;;;5023598;28;20787;-77
2022/07/05 01:41:01;;;;;;;4.93;2.47;;;14.80;99.90;;;;;;5022761;28;20508;-78
2022/07/05 01:43:45;;;;;;;5.03;2.40;;;14.80;99.90;;;;;;5030224;28;20408;-78
2022/07/05 01:46:37;;;;;;;4.90;2.30;;;14.80;99.90;;;;;;5023549;28;20765;-78
2022/07/05 01:49:23;;;;;;;2.60;2.30;;;14.70;99.90;;;;;;5021718;28;20777;-77
2022/07/05 01:52:11;;;;;;;4.40;2.67;;;14.70;99.90;;;;;;5024102;28;20519;-78
2022/07/05 01:54:56;;;;;;;3.97;2.78;;;14.60;99.90;;;;;;5024854;28;20416;-78
2022/07/05 01:57:40;;;;;;;3.53;2.53;;;14.60;99.90;;;;;;5026519;28;20418;-78
2022/07/05 02:00:25;;;;;;;3.17;2.38;;;14.60;99.90;;;;;;5023364;28;20434;-77
2022/07/05 02:03:10;;;;;;;3.60;2.70;;;14.60;99.90;;;;;;5028095;28;20402;-77
2022/07/05 02:05:54;;;;;;;3.78;2.83;;;14.60;99.90;;;;;;5028642;28;20500;-78
2022/07/05 02:08:39;;;;;;;2.97;2.70;;;14.50;99.90;;;;;;5030086;28;20414;-78
2022/07/05 02:11:23;;;;;;;4.10;2.65;;;14.40;99.90;;;;;;5025938;28;20468;-77
2022/07/05 02:14:07;;;;;;;4.43;2.80;;;14.30;99.90;;;;;;5025862;28;21021;-77
2022/07/05 02:16:52;;;;;;;3.83;2.80;;;14.30;99.90;;;;;;5025913;28;20506;-78
2022/07/05 02:19:38;;;;;;;4.57;2.70;;;14.30;99.90;;;;;;5028789;28;20410;-78
2022/07/05 02:33:14;;;;;;;3.47;2.90;;;14.20;99.90;;;;;;5037396;28;20457;-78
2022/07/05 02:36:09;;;;;;;3.67;2.83;;;14.10;99.90;;;;;;5038625;28;20490;-77
2022/07/05 02:38:53;;;;;;;3.47;2.90;;;14.10;99.90;;;;;;5047599;28;20412;-77
2022/07/05 02:41:38;;;;;;;4.15;2.80;;;14.00;99.90;;;;;;5034034;28;20452;-77
2022/07/05 02:44:25;;;;;;;3.78;3.08;;;14.00;99.90;;;;;;5037121;28;20428;-77
2022/07/05 02:47:10;;;;;;;3.38;3.00;;;14.00;99.90;;;;;;5035256;28;20496;-77
2022/07/05 02:50:24;;;;;;;6.38;2.97;;;14.00;99.90;;;;;;5041550;28;20405;-76
2022/07/05 02:53:08;;;;;;;4.07;2.80;;;14.00;99.90;;;;;;5031316;28;20432;-77
2022/07/05 02:55:53;;;;;;;4.43;3.05;;;14.00;99.90;;;;;;5045513;28;20495;-76
2022/07/05 02:58:38;;;;;;;4.38;3.00;;;14.00;99.90;;;;;;5041444;28;20439;-77
2022/07/05 03:01:23;;;;;;;4.38;3.33;;;14.00;99.90;;;;;;5044902;28;20416;-77
2022/07/05 03:04:09;;;;;;;3.47;3.17;;;14.00;99.90;;;;;;5049378;28;20400;-76
2022/07/05 03:06:54;;;;;;;3.95;3.03;;;13.90;99.90;;;;;;5047497;28;20450;-77
2022/07/05 03:09:38;;;;;;;5.57;3.30;;;13.80;99.90;;;;;;5040820;28;20452;-77
2022/07/05 03:12:22;;;;;;;3.60;3.00;;;13.80;99.90;;;;;;5040457;28;20413;-77
2022/07/05 03:15:07;;;;;;;3.92;3.40;;;13.80;99.90;;;;;;5044248;28;20416;-76
2022/07/05 03:17:51;;;;;;;4.63;3.38;;;13.70;99.90;;;;;;5045486;28;20478;-77
2022/07/05 03:20:36;;;;;;;4.50;3.45;;;13.70;99.90;;;;;;5041161;28;20476;-77
2022/07/05 03:23:20;;;;;;;3.63;2.90;;;13.70;99.90;;;;;;5040952;28;20849;-76
2022/07/05 03:26:04;;;;;;;4.82;2.95;;;13.80;99.90;;;;;;5041643;28;20418;-77
2022/07/05 03:28:49;;;;;;;3.63;3.20;;;13.80;99.90;;;;;;5043618;28;20417;-77
2022/07/05 03:31:34;;;;;;;4.72;3.00;;;13.80;99.90;;;;;;5043506;28;20999;-77
2022/07/05 03:34:18;;;;;;;3.90;3.05;;;13.80;99.90;;;;;;5045458;28;20424;-78
2022/07/05 03:37:02;;;;;;;5.10;3.03;;;13.80;99.90;;;;;;5040116;28;21916;-77
2022/07/05 03:39:47;;;;;;;5.33;3.07;;;13.70;99.90;;;;;;5040996;28;20428;-76
2022/07/05 03:42:32;;;;;;;4.97;3.05;;;13.70;99.90;;;;;;5041342;28;20445;-77
2022/07/05 03:45:16;;;;;;;4.65;3.25;;;13.70;99.90;;;;;;5037933;28;20424;-77
2022/07/05 03:48:01;;;;;;;4.05;3.10;;;13.70;99.90;;;;;;5039413;28;20410;-76
2022/07/05 03:50:46;;;;;;;3.88;3.20;;;13.60;99.90;;;;;;5045749;28;20420;-77
2022/07/05 03:53:30;;;;;;;3.83;3.40;;;13.60;99.90;;;;;;5041492;28;20421;-77
2022/07/05 03:56:19;;;;;;;5.70;3.28;;;13.60;99.90;;;;;;5043487;28;20417;-77
2022/07/05 03:59:04;;;;;;;3.45;3.15;;;13.50;99.90;;;;;;5043188;28;20410;-77
2022/07/05 04:01:48;;;;;;;4.00;3.28;;;13.50;99.90;;;;;;5047551;28;20501;-78
2022/07/05 04:04:33;;;;;;;4.20;3.20;;;13.50;99.90;;;;;;5044785;28;20443;-78
2022/07/05 04:07:17;;;;;;;5.30;3.30;;;13.50;99.90;;;;;;5033635;28;20408;-77
2022/07/05 04:10:01;;;;;;;4.07;3.50;;;13.60;99.90;;;;;;5047260;28;20467;-78
2022/07/05 04:12:48;;;;;;;4.60;3.50;;;13.60;99.90;;;;;;5041659;28;20418;-77
2022/07/05 04:15:32;;;;;;;3.97;3.33;;;13.60;99.90;;;;;;5045937;28;20416;-77
2022/07/05 04:18:17;;;;;;;6.53;3.75;;;13.60;99.90;;;;;;5042005;28;20458;-76
2022/07/05 04:21:02;;;;;;;5.68;3.65;;;13.60;99.90;;;;;;5035844;28;20475;-77
2022/07/05 04:23:46;;;;;;;4.90;3.63;;;13.60;99.90;;;;;;5035950;28;20433;-77
2022/07/05 04:26:31;;;;;;;5.25;3.83;;;13.70;99.90;;;;;;5044679;28;20447;-77
2022/07/05 04:29:15;;;;;;;4.67;3.70;;;13.60;99.90;;;;;;5040970;28;20927;-77
2022/07/05 04:32:00;;;;;;;5.40;3.47;;;13.70;99.90;;;;;;5036882;28;20400;-77
2022/07/05 04:34:44;;;;;;;4.30;3.90;;;13.70;99.90;;;;;;5041756;28;20476;-78
2022/07/05 04:37:28;;;;;;;5.72;3.70;;;13.70;99.90;;;;;;5040358;28;20836;-78
2022/07/05 04:40:14;;;;;;;4.10;3.70;;;13.70;99.90;;;;;;5041741;28;20451;-77
2022/07/05 04:42:58;;;;;;;6.32;3.78;;;13.80;99.90;;;;;;5043344;28;20412;-77
2022/07/05 04:45:43;;;;;;;4.38;3.95;;;13.80;99.90;;;;;;5039766;28;20563;-77
2022/07/05 04:48:27;;;;;;;5.43;3.83;;;13.80;99.90;;;;;;5047081;28;20950;-80
2022/07/05 04:51:11;;;;;;;6.70;3.70;;;13.80;99.90;;;;;;5044374;28;20407;-80
2022/07/05 04:53:56;;;;;;;7.15;4.30;;;13.80;99.90;;;;;;5041127;28;20414;-80
2022/07/05 04:56:40;;;;;;;5.47;4.10;;;13.90;99.90;;;;;;5048913;28;20422;-80
2022/07/05 04:59:24;;;;;;;4.68;4.00;;;13.90;99.90;;;;;;5046859;28;20572;-80
2022/07/05 05:02:08;;;;;;;6.07;4.10;;;14.00;99.90;;;;;;5057365;28;20416;-80
2022/07/05 05:04:53;;;;;;;5.25;4.25;;;14.00;99.90;;;;;;5047782;28;20417;-81
2022/07/05 05:07:42;;;;;;;7.68;3.95;;;14.10;99.90;;;;;;5043955;28;20790;-81
2022/07/05 05:10:26;;;;;;;7.40;4.35;;;14.20;99.90;;;;;;5047274;28;20537;-80
2022/07/05 05:13:10;;;;;;;6.57;3.85;;;14.30;99.90;;;;;;5050560;28;20416;-84
2022/07/05 05:15:54;;;;;;;5.72;4.20;;;14.30;99.90;;;;;;5043141;28;20461;-81
2022/07/05 05:18:38;;;;;;;6.72;4.05;;;14.40;99.90;;;;;;5040912;28;20479;-83
2022/07/05 05:21:23;;;;;;;7.70;4.13;;;14.50;99.90;;;;;;5039168;28;20495;-78
2022/07/05 05:24:07;;;;;;;8.23;4.50;;;14.60;99.90;;;;;;5039239;28;20431;-79
2022/07/05 05:26:51;;;;;;;8.90;4.50;;;14.70;99.90;;;;;;5038596;28;20464;-79
2022/07/05 05:29:35;;;;;;;5.55;4.05;;;14.70;99.90;;;;;;5036203;28;20415;-81
2022/07/05 05:32:19;;;;;;;7.68;4.50;;;14.80;99.90;;;;;;5046284;28;20448;-82
2022/07/05 05:35:05;;;;;;;6.93;4.18;;;14.80;99.90;;;;;;5041692;28;20420;-81
2022/07/05 05:37:52;;;;;;;6.40;4.30;;;14.90;99.90;;;;;;5045473;28;20427;-82
2022/07/05 05:40:41;;;;;;;6.77;4.27;;;14.90;99.90;;;;;;5044933;28;20460;-82
2022/07/05 05:43:25;;;;;;;5.65;3.90;;;15.00;99.90;;;;;;5041676;28;20408;-82
2022/07/05 05:46:09;;;;;;;7.38;3.97;;;15.10;99.90;;;;;;5040355;28;20414;-82
2022/07/05 05:48:54;;;;;;;10.23;3.95;;;15.20;99.90;;;;;;5049761;28;20462;-80
2022/07/05 05:51:38;;;;;;;5.40;4.00;;;15.30;99.90;;;;;;5044816;28;20455;-81
2022/07/05 05:54:22;;;;;;;6.05;4.15;;;15.40;99.90;;;;;;5043611;28;20474;-81
2022/07/05 05:57:06;;;;;;;6.43;4.13;;;15.40;99.90;;;;;;5043185;28;20413;-81
2022/07/05 05:59:51;;;;;;;6.05;4.22;;;15.60;99.90;;;;;;5044038;28;20512;-80
2022/07/05 06:02:35;;;;;;;5.15;4.28;;;15.60;99.90;;;;;;5035572;28;20453;-75
2022/07/05 06:05:19;;;;;;;7.10;4.25;;;15.70;99.90;;;;;;5049916;28;20412;-82
2022/07/05 06:08:03;;;;;;;6.22;4.28;;;15.80;99.90;;;;;;5050808;28;20919;-79
2022/07/05 06:10:48;;;;;;;7.13;4.35;;;15.90;99.90;;;;;;5046333;28;20410;-84
2022/07/05 06:13:32;;;;;;;6.88;4.13;;;16.00;99.90;;;;;;5043991;28;20406;-84
2022/07/05 06:16:17;;;;;;;6.93;4.40;;;16.00;99.90;;;;;;5045174;28;20408;-84
2022/07/05 06:19:02;;;;;;;9.57;4.32;;;16.10;99.90;;;;;;5048280;28;20388;-84
2022/07/05 06:21:46;;;;;;;7.85;4.32;;;16.20;99.90;;;;;;5047588;28;20396;-84
2022/07/05 06:24:31;;;;;;;10.35;4.75;;;16.30;99.90;;;;;;5042477;28;20414;-83
2022/07/05 06:27:15;;;;;;;5.22;3.92;;;16.40;99.90;;;;;;5040571;28;20413;-83
2022/07/05 06:30:00;;;;;;;7.90;3.90;;;16.50;99.90;;;;;;5042086;28;20418;-83
2022/07/05 06:32:48;;;;;;;8.82;4.20;;;16.60;99.90;;;;;;5041187;28;20741;-84
2022/07/05 06:35:34;;;;;;;6.18;3.53;;;16.70;99.90;;;;;;5043117;28;20460;-84
2022/07/05 06:38:18;;;;;;;5.45;3.70;;;16.80;99.90;;;;;;5044805;28;20412;-83
2022/07/05 06:41:02;;;;;;;5.07;3.60;;;16.90;99.90;;;;;;5045686;28;20526;-83
2022/07/05 06:43:46;;;;;;;5.50;3.38;;;17.00;99.90;;;;;;5044053;28;20443;-83
2022/07/05 06:46:30;;;;;;;6.07;3.25;;;17.10;99.90;;;;;;5037303;28;20472;-82
2022/07/05 06:49:15;;;;;;;38.05;7.20;;;17.20;99.90;;;;;;5042926;28;20423;-83
2022/07/05 06:51:59;;;;;;;14.15;4.15;;;17.30;99.90;;;;;;5038749;28;20425;-83
2022/07/05 06:54:43;;;;;;;4.10;3.03;;;17.40;99.90;;;;;;5046455;28;20395;-83
2022/07/05 06:57:27;;;;;;;5.88;2.70;;;17.40;99.90;;;;;;5046795;28;20400;-83
2022/07/05 07:00:13;;;;;;;7.17;2.67;;;17.50;99.90;;;;;;5045352;28;20490;-83
2022/07/05 07:02:58;;;;;;;6.65;3.00;;;17.50;99.90;;;;;;5040470;28;20453;-83
2022/07/05 07:05:42;;;;;;;5.50;3.03;;;17.70;99.90;;;;;;5039745;28;20394;-83
2022/07/05 07:11:30;;;;;;;7.63;2.80;;;17.80;99.90;;;;;;5043752;28;20463;-84
2022/07/05 07:14:16;;;;;;;6.25;2.70;;;17.90;99.90;;;;;;5046855;28;20506;-83
2022/07/05 07:17:00;;;;;;;3.50;2.13;;;17.90;99.90;;;;;;5045861;28;20429;-82
2022/07/05 07:19:44;;;;;;;6.70;2.05;;;18.00;99.90;;;;;;5040549;28;20480;-83
2022/07/05 07:22:28;;;;;;;3.50;2.25;;;18.20;99.90;;;;;;5040709;28;20405;-83
2022/07/05 07:25:12;;;;;;;5.78;2.10;;;18.30;99.90;;;;;;5039354;28;20437;-83
2022/07/05 07:27:57;;;;;;;20.83;4.25;;;18.40;99.90;;;;;;5048900;28;20769;-82
2022/07/05 07:30:41;;;;;;;10.73;2.17;;;18.50;99.90;;;;;;5044258;28;20405;-83
2022/07/05 07:33:25;;;;;;;4.13;1.65;;;18.60;99.90;;;;;;5044607;28;20407;-83
2022/07/05 07:36:09;;;;;;;3.10;1.50;;;18.60;99.90;;;;;;5048563;28;20432;-83
2022/07/05 07:38:53;;;;;;;5.72;1.70;;;18.70;99.90;;;;;;5045324;28;20432;-83
2022/07/05 07:41:38;;;;;;;3.70;1.60;;;18.70;99.90;;;;;;5050818;28;20417;-84
2022/07/05 07:44:22;;;;;;;3.07;1.53;;;18.80;99.90;;;;;;5041278;28;20422;-84
2022/07/05 07:47:08;;;;;;;4.15;1.55;;;18.90;99.90;;;;;;5051136;28;20412;-85
2022/07/05 07:49:53;;;;;;;4.57;1.45;;;18.90;99.90;;;;;;5063813;28;20420;-84
2022/07/05 07:52:38;;;;;;;2.92;1.48;;;19.00;99.90;;;;;;5051594;28;20482;-85
2022/07/05 07:55:22;;;;;;;3.42;2.60;;;19.00;99.90;;;;;;5046702;28;20412;-84
2022/07/05 07:58:07;;;;;;;5.40;1.40;;;19.00;99.90;;;;;;5052225;28;20530;-85
2022/07/05 08:00:51;;;;;;;3.90;1.33;;;19.10;99.90;;;;;;5044502;28;20418;-85
2022/07/05 08:03:39;;;;;;;4.68;1.45;;;19.10;99.90;;;;;;5039995;28;20446;-85
2022/07/05 08:06:23;;;;;;;3.53;1.40;;;19.10;99.90;;;;;;5039868;28;20402;-85
2022/07/05 08:09:08;;;;;;;6.22;1.00;;;19.10;99.90;;;;;;5046130;28;20403;-85
2022/07/05 08:11:52;;;;;;;3.17;1.05;;;19.10;99.90;;;;;;5049398;28;20415;-85
2022/07/05 08:14:36;;;;;;;8.63;1.40;;;19.20;99.90;;;;;;5051309;28;20438;-85
2022/07/05 08:17:21;;;;;;;4.13;1.00;;;19.30;99.90;;;;;;5045829;28;20463;-85
2022/07/05 08:23:08;;;;;;;4.80;1.05;;;19.40;99.90;;;;;;5052412;28;20384;-85
2022/07/05 08:25:52;;;;;;;1.92;0.80;;;19.60;99.90;;;;;;5051730;28;20890;-84
2022/07/05 08:28:36;;;;;;;2.50;0.80;;;19.60;99.90;;;;;;5054520;28;20451;-82
2022/07/05 08:31:21;;;;;;;2.63;1.00;;;19.60;99.90;;;;;;5049532;28;20464;-80
2022/07/05 08:34:05;;;;;;;2.15;0.90;;;19.60;99.90;;;;;;5049429;28;20449;-80
2022/07/05 08:36:49;;;;;;;3.47;0.80;;;19.70;99.90;;;;;;5039832;28;20937;-83
2022/07/05 08:39:33;;;;;;;4.15;1.02;;;19.70;99.90;;;;;;5044803;28;20424;-83
2022/07/05 08:42:18;;;;;;;2.50;0.87;;;19.70;99.90;;;;;;5046567;28;20395;-83
2022/07/05 08:45:03;;;;;;;1.85;0.75;;;19.80;99.90;;;;;;5052519;28;20903;-83
2022/07/05 08:47:48;;;;;;;2.28;0.85;;;19.90;99.90;;;;;;5046805;28;20456;-83
2022/07/05 08:50:33;;;;;;;3.25;0.98;;;20.00;99.90;;;;;;5036944;28;20210;-83
2022/07/05 08:53:21;;;;;;;3.80;1.10;;;20.00;99.90;;;;;;5048816;28;20741;-83
2022/07/05 08:56:07;;;;;;;2.55;0.98;;;20.00;99.90;;;;;;5036418;28;20293;-82
2022/07/05 08:58:52;;;;;;;2.95;1.00;;;19.90;99.90;;;;;;5039546;28;20195;-83
2022/07/05 09:01:36;;;;;;;3.15;1.02;;;19.80;99.90;;;;;;5050702;28;20738;-83
2022/07/05 09:04:23;;;;;;;4.75;0.90;;;19.90;99.90;;;;;;5048764;28;20242;-83
2022/07/05 09:07:09;;;;;;;3.33;1.00;;;20.00;99.90;;;;;;5050626;28;20214;-83
2022/07/05 09:09:57;;;;;;;1.15;1.00;;;20.00;99.90;;;;;;5040773;28;20258;-82
2022/07/05 09:12:41;;;;;;;2.95;0.90;;;20.10;99.90;;;;;;5038447;28;20198;-83
2022/07/05 09:15:25;;;;;;;3.55;1.00;;;20.10;99.90;;;;;;5046927;28;20233;-82
2022/07/05 09:18:10;;;;;;;4.97;0.95;;;20.20;99.90;;;;;;5050344;28;20187;-82
2022/07/05 09:21:31;;;;;;;1.02;0.93;;;20.30;99.90;;;;;;5042517;28;20278;-83
2022/07/05 09:24:16;;;;;;;1.63;0.63;;;20.50;99.90;;;;;;5044085;28;20824;-83
2022/07/05 09:27:04;;;;;;;3.28;0.95;;;20.50;99.90;;;;;;5040385;28;20230;-83
2022/07/05 09:29:58;;;;;;;1.92;0.70;;;20.50;99.90;;;;;;5043711;28;20234;-83
2022/07/05 09:32:42;;;;;;;9.25;0.90;;;20.40;99.90;;;;;;5044414;28;20219;-83
2022/07/05 09:35:28;;;;;;;2.78;0.90;;;20.30;99.90;;;;;;5040070;28;20237;-83
2022/07/05 09:38:20;;;;;;;2.40;0.90;;;20.30;99.90;;;;;;5046408;28;20218;-83
2022/07/05 09:41:11;;;;;;;2.78;1.02;;;20.30;99.90;;;;;;5044354;28;20207;-82
2022/07/05 09:43:55;;;;;;;4.22;0.90;;;20.30;99.90;;;;;;5048477;28;20215;-83
2022/07/05 09:46:39;;;;;;;2.00;0.90;;;20.40;99.90;;;;;;5036080;28;20199;-83
2022/07/05 09:49:27;;;;;;;3.63;1.25;;;20.50;99.90;;;;;;5045406;28;20196;-82
2022/07/05 09:52:35;;;;;;;2.42;1.00;;;20.60;99.90;;;;;;5046200;28;20213;-82
2022/07/05 09:55:19;;;;;;;1.15;0.95;;;20.60;99.90;;;;;;5036283;28;20869;-82
2022/07/05 09:58:04;;;;;;;1.95;0.82;;;20.70;99.90;;;;;;5042221;28;20187;-83
2022/07/05 10:00:48;;;;;;;2.88;0.77;;;20.80;99.90;;;;;;5043672;28;20214;-82
2022/07/05 10:03:54;;;;;;;2.10;0.82;;;20.90;99.90;;;;;;5039298;28;20214;-83
2022/07/05 10:06:38;;;;;;;2.45;0.90;;;21.00;99.90;;;;;;5046898;28;20263;-83
2022/07/05 10:09:23;;;;;;;2.10;0.80;;;21.20;99.90;;;;;;5049821;28;20194;-83
2022/07/05 10:12:07;;;;;;;4.40;0.77;;;21.20;99.90;;;;;;5044272;28;20195;-83
2022/07/05 10:14:52;;;;;;;3.92;0.88;;;21.30;99.90;;;;;;5043580;28;20235;-84
2022/07/05 10:18:00;;;;;;;2.35;0.90;;;21.20;99.90;;;;;;5047400;28;20206;-83
2022/07/05 10:20:46;;;;;;;2.55;1.13;;;21.20;99.90;;;;;;5043074;28;20575;-83
2022/07/05 10:23:31;;;;;;;1.52;0.93;;;21.20;99.90;;;;;;5046774;28;20234;-83
2022/07/05 10:26:16;;;;;;;0.80;0.60;;;21.20;99.90;;;;;;5042397;28;20209;-84
2022/07/05 10:29:01;;;;;;;1.42;0.98;;;21.10;99.90;;;;;;5042007;28;20195;-84
2022/07/05 10:31:46;;;;;;;2.35;0.80;;;21.00;99.90;;;;;;5042116;28;20207;-83
2022/07/05 10:34:33;;;;;;;2.55;0.70;;;21.00;99.90;;;;;;5044503;28;20246;-83
2022/07/05 10:37:18;;;;;;;1.70;1.13;;;20.90;99.90;;;;;;5038971;28;20257;-83
2022/07/05 10:40:07;;;;;;;3.80;0.90;;;21.00;99.90;;;;;;5033585;28;20225;-83
2022/07/05 10:42:56;;;;;;;4.63;0.70;;;21.00;99.90;;;;;;5041469;28;20238;-83
2022/07/05 10:45:47;;;;;;;1.08;0.73;;;21.10;99.90;;;;;;5043935;28;20300;-83
2022/07/05 10:48:32;;;;;;;1.52;0.90;;;21.10;99.90;;;;;;5049116;28;20195;-83
2022/07/05 10:51:16;;;;;;;1.38;0.93;;;21.10;99.90;;;;;;5045891;28;20205;-83
2022/07/05 10:54:02;;;;;;;3.35;0.77;;;21.10;99.90;;;;;;5043267;28;20261;-82
2022/07/05 10:57:26;;;;;;;2.08;0.75;;;21.10;99.90;;;;;;5043143;28;20207;-83
2022/07/05 11:00:12;;;;;;;1.67;0.80;;;21.00;99.90;;;;;;4999685;28;20243;-83
2022/07/05 11:03:07;;;;;;;3.45;0.88;;;21.00;99.90;;;;;;4997361;28;20223;-82
2022/07/05 11:05:52;;;;;;;2.03;0.85;;;20.90;99.90;;;;;;5042299;28;20632;-82
2022/07/05 11:11:46;;;;;;;2.05;0.63;;;20.90;99.90;;;;;;5050524;28;20190;-82
2022/07/05 11:14:32;;;;;;;1.00;0.63;;;20.90;99.90;;;;;;5053255;28;20230;-82
2022/07/05 11:17:29;;;;;;;2.30;0.82;;;20.90;99.90;;;;;;5054052;28;20273;-82
2022/07/05 11:20:19;;;;;;;2.00;0.93;;;20.90;99.90;;;;;;5052926;28;20225;-81
2022/07/05 11:23:12;;;;;;;3.45;0.98;;;20.80;99.90;;;;;;5052427;28;20218;-81
2022/07/05 11:25:56;;;;;;;1.80;0.60;;;20.80;99.90;;;;;;5052970;28;20795;-81
2022/07/05 11:28:45;;;;;;;3.55;0.80;;;20.90;99.90;;;;;;5053846;28;20193;-82
2022/07/05 11:31:41;;;;;;;7.15;0.80;;;20.90;99.90;;;;;;5052262;28;20240;-82
2022/07/05 11:34:33;;;;;;;0.80;0.75;;;20.90;99.90;;;;;;5051367;28;20257;-81
2022/07/05 11:37:19;;;;;;;3.00;1.00;;;21.10;99.90;;;;;;5052353;28;20179;-81
2022/07/05 11:40:15;;;;;;;1.30;0.95;;;21.20;99.90;;;;;;5051283;28;20278;-81
2022/07/05 11:43:00;;;;;;;2.97;0.90;;;21.30;99.90;;;;;;5049148;28;20223;-82
2022/07/05 11:45:45;;;;;;;0.82;0.70;;;21.40;99.90;;;;;;5051681;28;20695;-81
2022/07/05 11:48:30;;;;;;;2.00;0.82;;;21.50;99.90;;;;;;5051052;28;20194;-82
2022/07/05 11:51:15;;;;;;;1.70;0.70;;;21.50;99.90;;;;;;5050040;28;20202;-82
2022/07/05 11:54:01;;;;;;;3.22;0.80;;;21.50;99.90;;;;;;5046600;28;20276;-81
2022/07/05 11:56:45;;;;;;;8.98;0.93;;;21.40;99.90;;;;;;5047608;28;20183;-82
2022/07/05 11:59:29;;;;;;;6.85;1.52;;;21.30;99.90;;;;;;5051104;28;20218;-82
2022/07/05 12:02:14;;;;;;;3.53;0.88;;;21.30;99.90;;;;;;5047411;28;20241;-82
2022/07/05 12:04:59;;;;;;;1.40;0.75;;;21.20;99.90;;;;;;5051755;28;20238;-82
2022/07/05 12:07:49;;;;;;;4.10;0.90;;;21.10;99.90;;;;;;5046417;28;20199;-82
2022/07/05 12:13:47;;;;;;;3.22;0.80;;;21.00;99.90;;;;;;5050593;28;20226;-81
2022/07/05 12:16:32;;;;;;;4.60;0.80;;;21.00;99.90;;;;;;5047582;28;20195;-82
2022/07/05 12:19:26;;;;;;;1.40;0.93;;;21.00;99.90;;;;;;5045441;28;20204;-80
2022/07/05 12:22:11;;;;;;;2.63;0.70;;;21.00;99.90;;;;;;5042556;28;20198;-76
2022/07/05 12:24:58;;;;;;;2.78;0.70;;;21.10;99.90;;;;;;5041099;28;20210;-75
2022/07/05 12:27:43;;;;;;;3.28;0.98;;;21.20;99.90;;;;;;5041339;28;20237;-76
2022/07/05 12:30:29;;;;;;;2.92;0.63;;;21.30;99.90;;;;;;5044574;28;20273;-77
2022/07/05 12:33:14;;;;;;;5.15;0.80;;;21.40;99.90;;;;;;5044605;28;20353;-81
2022/07/05 12:35:59;;;;;;;1.67;0.75;;;21.40;99.90;;;;;;5044344;28;20210;-78
2022/07/05 12:38:43;;;;;;;3.15;0.80;;;21.50;99.90;;;;;;5044571;28;20237;-85
2022/07/05 12:41:28;;;;;;;3.80;0.90;;;21.60;99.90;;;;;;5038748;28;20269;-85
2022/07/05 12:44:12;;;;;;;3.33;0.73;;;21.50;99.90;;;;;;5044362;28;20265;-79
2022/07/05 12:47:05;;;;;;;5.10;1.10;;;21.40;99.90;;;;;;5045928;28;20253;-78
2022/07/05 12:49:54;;;;;;;2.72;0.85;;;21.40;99.90;;;;;;5044506;28;20525;-76
2022/07/05 12:52:58;;;;;;;4.35;0.98;;;21.50;99.90;;;;;;5046406;28;20205;-76
2022/07/05 12:58:53;;;;;;;3.15;0.82;;;21.60;99.90;;;;;;5046969;28;20199;-78
2022/07/05 13:01:41;;;;;;;1.08;0.80;;;21.60;99.90;;;;;;5046803;28;20245;-78
2022/07/05 13:04:25;;;;;;;0.73;0.70;;;21.60;99.90;;;;;;5049542;28;20668;-86
2022/07/05 13:07:09;;;;;;;1.45;1.02;;;21.60;99.90;;;;;;5044771;28;20187;-82
2022/07/05 13:10:42;;;;;;;2.97;0.95;;;21.70;99.90;;;;;;5041828;28;20736;-83
2022/07/05 13:13:27;;;;;;;3.95;1.00;;;21.80;99.90;;;;;;5041355;28;20234;-82
2022/07/05 13:16:11;;;;;;;1.95;0.95;;;21.90;99.90;;;;;;5041462;28;20189;-83
2022/07/05 13:19:10;;;;;;;2.80;0.90;;;22.00;99.90;;;;;;5044168;28;20278;-82
2022/07/05 13:21:54;;;;;;;0.80;0.80;;;22.00;99.90;;;;;;5045050;28;20206;-82
2022/07/05 13:24:39;;;;;;;10.82;1.33;;;22.10;99.90;;;;;;5041786;28;20662;-83
2022/07/05 13:27:24;;;;;;;1.02;0.80;;;22.10;99.90;;;;;;5044375;28;20604;-83
2022/07/05 13:30:09;;;;;;;1.83;0.82;;;22.20;99.90;;;;;;5043770;28;20289;-83
2022/07/05 13:32:53;;;;;;;4.05;1.05;;;22.20;99.90;;;;;;5044844;28;20234;-83
2022/07/05 13:35:37;;;;;;;2.80;0.90;;;22.20;99.90;;;;;;5045181;28;20218;-83
2022/07/05 13:38:22;;;;;;;5.47;1.20;;;22.30;99.90;;;;;;5041484;28;20199;-83
2022/07/05 13:41:06;;;;;;;1.55;0.70;;;22.20;99.90;;;;;;5041493;28;20215;-83
2022/07/05 13:43:50;;;;;;;6.30;0.77;;;22.20;99.90;;;;;;5037624;28;20211;-83
2022/07/05 13:46:34;;;;;;;3.15;0.95;;;22.20;99.90;;;;;;5037689;28;20187;-83
2022/07/05 13:49:19;;;;;;;9.50;1.13;;;22.20;99.90;;;;;;5040212;28;20271;-83
2022/07/05 13:52:05;;;;;;;2.22;0.90;;;22.20;99.90;;;;;;5041334;28;20257;-83
2022/07/05 13:54:49;;;;;;;3.97;1.10;;;22.30;99.90;;;;;;5040818;28;20214;-82
2022/07/05 13:57:34;;;;;;;4.75;0.88;;;22.30;99.90;;;;;;5043281;28;20673;-82
2022/07/05 14:00:18;;;;;;;2.78;0.88;;;22.30;99.90;;;;;;5041203;28;20221;-82
2022/07/05 14:03:03;;;;;;;2.38;0.90;;;22.20;99.90;;;;;;5039769;28;20218;-81
2022/07/05 14:05:48;;;;;;;2.38;0.90;;;22.20;99.90;;;;;;5053269;28;20198;-81
2022/07/05 14:08:32;;;;;;;3.10;1.10;;;22.10;99.90;;;;;;5042878;28;20183;-81
2022/07/05 14:11:16;;;;;;;8.13;0.90;;;22.00;99.90;;;;;;5042747;28;20186;-81
2022/07/05 14:14:01;;;;;;;5.95;1.30;;;22.00;99.90;;;;;;5040974;28;20276;-79
2022/07/05 14:16:45;;;;;;;2.20;0.90;;;22.00;99.90;;;;;;5038191;28;20194;-81
2022/07/05 14:19:29;;;;;;;2.22;0.90;;;21.90;99.90;;;;;;5043214;28;20207;-80
2022/07/05 14:22:13;;;;;;;1.05;0.88;;;21.90;99.90;;;;;;5040842;28;20187;-80
2022/07/05 14:24:57;;;;;;;1.77;0.82;;;22.00;99.90;;;;;;5045804;28;20194;-80
2022/07/05 14:27:42;;;;;;;6.53;1.00;;;22.00;99.90;;;;;;5044544;28;20692;-80
2022/07/05 14:30:28;;;;;;;5.15;0.82;;;22.00;99.90;;;;;;5043466;28;20225;-80
2022/07/05 14:33:13;;;;;;;1.40;1.17;;;21.90;99.90;;;;;;5047478;28;20226;-80
2022/07/05 14:35:57;;;;;;;3.03;0.73;;;21.90;99.90;;;;;;5047697;28;20198;-80
2022/07/05 14:38:43;;;;;;;3.47;1.10;;;22.00;99.90;;;;;;5043937;28;20203;-79
2022/07/05 14:41:28;;;;;;;2.55;1.10;;;22.10;99.90;;;;;;5042653;28;20237;-80
2022/07/05 14:44:12;;;;;;;2.20;0.80;;;22.10;99.90;;;;;;5047008;28;20214;-80
2022/07/05 14:46:57;;;;;;;6.03;1.33;;;22.10;99.90;;;;;;5045234;28;20222;-80
2022/07/05 14:49:41;;;;;;;1.88;0.90;;;22.10;99.90;;;;;;5044588;28;20264;-79
2022/07/05 14:52:25;;;;;;;3.70;1.00;;;22.20;99.90;;;;;;5047405;28;20300;-80
2022/07/05 14:55:10;;;;;;;2.15;1.00;;;22.40;99.90;;;;;;5044448;28;20193;-80
2022/07/05 14:57:54;;;;;;;3.80;1.05;;;22.40;99.90;;;;;;5046483;28;20689;-80
2022/07/05 15:00:38;;;;;;;4.70;0.95;;;22.40;99.90;;;;;;5047630;28;20250;-80
2022/07/05 15:03:23;;;;;;;6.18;1.10;;;22.40;99.90;;;;;;5047334;28;20315;-79
2022/07/05 15:06:08;;;;;;;1.33;0.70;;;22.40;99.90;;;;;;5044623;28;20209;-80
2022/07/05 15:08:53;;;;;;;3.53;0.70;;;22.50;99.90;;;;;;5045413;28;20191;-80
2022/07/05 15:11:37;;;;;;;2.15;0.77;;;22.50;99.90;;;;;;5048879;28;20195;-80
2022/07/05 15:14:21;;;;;;;4.22;1.20;;;22.70;99.90;;;;;;5045649;28;20214;-80
2022/07/05 15:17:06;;;;;;;2.15;0.80;;;22.70;99.90;;;;;;5043856;28;20203;-80
2022/07/05 15:19:50;;;;;;;1.52;0.88;;;22.70;99.90;;;;;;5048093;28;20190;-80